Terminal Aerodrome Forecast
Issued by NWS

Home | Current Version | Previous Version | Text Only | Print | Product List | Glossary On
Versions: 1 2 3 4 5 6 7 8 9 10 11 12 13 14 15 16 17 18 19 20 21 22 23 24 25 26 27 28 29 30
000
FTAK31 PANC 240530
TAFAGK
TAF
PAGK 240530Z 2406/2506 VRB04KT P6SM VCSH BKN080
     FM250000 01007KT P6SM VCTS SCT045CB BKN060=

USA.gov is the U.S. government's official web portal to all federal, state and local government web resources and services.